createdAt,value
2022-08-30T00:03:05.606Z,97662.79
2022-08-30T00:05:56.444Z,97666.80
2022-08-30T00:08:47.025Z,97669.59
2022-08-30T00:14:13.631Z,97654.95
2022-08-30T00:17:03.439Z,97659.05
2022-08-30T00:20:29.201Z,97662.77
2022-08-30T00:23:38.536Z,97662.25
2022-08-30T00:26:30.393Z,97663.09
2022-08-30T00:29:21.177Z,97660.09
2022-08-30T00:32:11.580Z,97663.73
2022-08-30T00:35:18.798Z,97660.05
2022-08-30T00:38:08.793Z,97666.20
2022-08-30T00:47:32.759Z,97661.02
2022-08-30T00:50:27.580Z,97661.11
2022-08-30T00:53:03.443Z,97661.54
2022-08-30T00:56:11.343Z,97665.79
2022-08-30T00:59:55.636Z,97671.59
2022-08-30T01:02:47.022Z,97675.84
2022-08-30T01:05:40.254Z,97675.72
2022-08-30T01:08:12.912Z,97672.27
2022-08-30T01:11:39.514Z,97674.16
2022-08-30T01:17:57.332Z,97681.16
2022-08-30T01:20:56.447Z,97682.33
2022-08-30T01:23:30.409Z,97683.77
2022-08-30T01:26:22.726Z,97678.39
2022-08-30T01:28:58.398Z,97676.90
2022-08-30T01:31:49.502Z,97672.39
2022-08-30T01:34:39.684Z,97665.13
2022-08-30T01:37:19.734Z,97671.03
2022-08-30T01:40:10.691Z,97673.98
2022-08-30T01:42:43.500Z,97670.36
2022-08-30T01:46:26.230Z,97674.41
2022-08-30T01:49:54.271Z,97669.58
2022-08-30T01:52:27.565Z,97668.41
2022-08-30T01:55:35.163Z,97670.06
2022-08-30T02:01:18.084Z,97670.80
2022-08-30T02:07:57.030Z,97673.96
2022-08-30T02:13:57.775Z,97667.05
2022-08-30T02:16:31.345Z,97668.60
2022-08-30T02:19:21.005Z,97668.69
2022-08-30T02:22:11.573Z,97669.02
2022-08-30T02:24:44.469Z,97674.86
2022-08-30T02:33:51.674Z,97674.48
2022-08-30T02:36:41.902Z,97681.10
2022-08-30T02:39:32.336Z,97680.08
2022-08-30T02:42:22.437Z,97680.90
2022-08-30T02:45:12.518Z,97675.77
2022-08-30T02:51:29.617Z,97673.52
2022-08-30T02:54:37.658Z,97673.18
2022-08-30T02:57:30.685Z,97671.20
2022-08-30T03:03:48.385Z,97677.55
2022-08-30T03:06:39.038Z,97670.71
2022-08-30T03:09:30.254Z,97665.13
2022-08-30T03:16:21.011Z,97661.44
2022-08-30T03:19:47.669Z,97659.61
2022-08-30T03:30:08.504Z,97662.15
2022-08-30T03:36:08.528Z,97660.02
2022-08-30T03:41:50.155Z,97657.42
2022-08-30T03:44:23.102Z,97661.52
2022-08-30T03:47:32.077Z,97658.92
2022-08-30T03:53:48.506Z,97662.27
2022-08-30T03:59:37.284Z,97667.71
2022-08-30T04:02:10.212Z,97665.52
2022-08-30T04:08:27.844Z,97665.02
2022-08-30T04:11:36.745Z,97668.84
2022-08-30T04:14:28.370Z,97676.67
2022-08-30T04:17:01.477Z,97678.43
2022-08-30T04:19:51.267Z,97679.02
2022-08-30T04:22:42.548Z,97683.95
2022-08-30T04:26:09.127Z,97690.73
2022-08-30T04:28:42.226Z,97696.36
2022-08-30T04:34:42.460Z,97692.95
2022-08-30T04:37:33.579Z,97690.86
2022-08-30T04:43:15.832Z,97698.33
2022-08-30T04:49:01.790Z,97702.43
2022-08-30T04:55:20.378Z,97704.66
2022-08-30T04:57:53.799Z,97704.43
2022-08-30T05:00:47.155Z,97712.98
2022-08-30T05:07:22.433Z,97710.61
2022-08-30T05:13:20.862Z,97716.86
2022-08-30T05:16:35.173Z,97709.98
2022-08-30T05:22:15.410Z,97707.05
2022-08-30T05:25:06.307Z,97711.34
2022-08-30T05:31:04.617Z,97710.83
2022-08-30T05:34:23.555Z,97711.48
2022-08-30T05:36:56.631Z,97706.70
2022-08-30T05:39:29.756Z,97708.69
2022-08-30T05:43:16.595Z,97706.61
2022-08-30T05:46:06.633Z,97703.92
2022-08-30T05:52:05.522Z,97712.83
2022-08-30T05:55:14.189Z,97707.98
2022-08-30T06:01:28.832Z,97705.52
2022-08-30T06:04:04.298Z,97708.75
2022-08-30T06:07:15.827Z,97707.69
2022-08-30T06:10:09.523Z,97711.43
2022-08-30T06:13:17.396Z,97712.58
2022-08-30T06:23:18.700Z,97723.13
2022-08-30T06:26:10.631Z,97721.03
2022-08-30T06:29:40.666Z,97726.06
2022-08-30T06:36:05.735Z,97716.21
2022-08-30T06:39:13.603Z,97719.56
2022-08-30T06:46:06.191Z,97726.30
2022-08-30T06:49:17.399Z,97726.86
2022-08-30T06:52:08.682Z,97722.20
2022-08-30T06:58:25.978Z,97718.33
2022-08-30T07:01:18.962Z,97718.65
2022-08-30T07:07:54.795Z,97727.52
2022-08-30T07:10:46.341Z,97725.61
2022-08-30T07:14:11.013Z,97725.31
2022-08-30T07:17:20.781Z,97725.88
2022-08-30T07:20:12.428Z,97728.55
2022-08-30T07:22:45.795Z,97725.27
2022-08-30T07:25:19.882Z,97726.11
2022-08-30T07:28:12.134Z,97727.98
2022-08-30T07:31:04.079Z,97730.75
2022-08-30T07:34:29.352Z,97730.59
2022-08-30T07:37:18.871Z,97734.91
2022-08-30T07:40:11.637Z,97735.02
2022-08-30T07:45:53.105Z,97730.41
2022-08-30T07:49:01.713Z,97734.50
2022-08-30T07:55:37.723Z,97737.84
2022-08-30T07:58:10.548Z,97737.98
2022-08-30T08:05:02.258Z,97747.27
2022-08-30T08:07:35.420Z,97753.23
2022-08-30T08:10:09.422Z,97754.72
2022-08-30T08:12:59.652Z,97753.23
2022-08-30T08:15:49.519Z,97757.58
2022-08-30T08:18:22.321Z,97753.83
2022-08-30T08:21:14.237Z,97753.29
2022-08-30T08:27:29.555Z,97750.77
2022-08-30T08:30:02.031Z,97750.39
2022-08-30T08:33:28.473Z,97751.41
2022-08-30T08:39:43.776Z,97752.48
2022-08-30T08:42:40.604Z,97753.27
2022-08-30T08:45:36.639Z,97752.93
2022-08-30T08:48:51.785Z,97752.59
2022-08-30T08:52:03.974Z,97754.28
2022-08-30T08:54:43.628Z,97751.77
2022-08-30T08:57:37.671Z,97753.91
2022-08-30T09:00:45.035Z,97750.83
2022-08-30T09:49:24.022Z,97721.35
2022-08-30T09:56:14.976Z,97718.02
2022-08-30T09:59:12.992Z,97721.30
2022-08-30T10:02:02.440Z,97718.76
2022-08-30T10:05:00.286Z,97717.30
2022-08-30T10:07:55.723Z,97714.15
2022-08-30T10:10:51.206Z,97712.65
2022-08-30T10:13:56.472Z,97714.47
2022-08-30T10:17:09.521Z,97712.02
2022-08-30T10:19:57.900Z,97708.87
2022-08-30T10:23:24.685Z,97703.34
2022-08-30T10:26:32.068Z,97698.55
2022-08-30T10:29:22.105Z,97693.81
2022-08-30T10:32:47.997Z,97691.64
2022-08-30T10:35:39.957Z,97691.84
2022-08-30T10:38:44.923Z,97685.23
2022-08-30T10:41:24.424Z,97686.55
2022-08-30T10:44:16.990Z,97680.32
2022-08-30T10:47:18.573Z,97674.15
2022-08-30T10:50:01.572Z,97674.34
2022-08-30T10:53:09.046Z,97675.53
2022-08-30T10:55:49.875Z,97676.11
2022-08-30T11:06:18.897Z,97672.75
2022-08-30T11:09:06.926Z,97671.90
2022-08-30T11:12:11.221Z,97668.45
2022-08-30T11:18:24.476Z,97660.41
2022-08-30T11:21:20.960Z,97660.89
2022-08-30T11:27:45.545Z,97654.68
2022-08-30T11:44:26.824Z,97648.94
2022-08-30T11:46:58.044Z,97647.70
2022-08-30T11:50:21.643Z,97640.67
2022-08-30T11:53:33.850Z,97635.59
2022-08-30T11:56:24.482Z,97638.41
2022-08-30T11:58:58.322Z,97635.02
2022-08-30T12:01:53.070Z,97629.39
2022-08-30T12:08:53.291Z,97622.04
2022-08-30T12:11:59.047Z,97617.54
2022-08-30T12:14:52.829Z,97611.72
2022-08-30T12:18:16.129Z,97607.11
2022-08-30T12:21:28.854Z,97600.13
2022-08-30T12:24:07.139Z,97594.83
2022-08-30T12:26:54.475Z,97592.21
2022-08-30T12:33:41.488Z,97585.85
2022-08-30T12:36:35.823Z,97580.75
2022-08-30T12:39:35.798Z,97576.62
2022-08-30T12:42:49.337Z,97576.15
2022-08-30T12:46:16.811Z,97568.02
2022-08-30T12:49:06.833Z,97569.28
2022-08-30T12:51:41.191Z,97561.30
2022-08-30T12:54:18.404Z,97550.62
2022-08-30T12:57:19.586Z,97550.06
2022-08-30T13:00:27.467Z,97542.70
2022-08-30T13:03:32.907Z,97544.73
2022-08-30T13:06:43.885Z,97540.44
2022-08-30T13:13:44.383Z,97532.96
2022-08-30T13:17:07.596Z,97533.10
2022-08-30T13:26:39.983Z,97520.98
2022-08-30T13:33:29.367Z,97518.42
2022-08-30T13:36:35.920Z,97519.29
2022-08-30T13:39:25.519Z,97517.88
2022-08-30T13:42:31.632Z,97513.16
2022-08-30T13:45:04.908Z,97507.71
2022-08-30T13:47:52.995Z,97501.52
2022-08-30T13:50:42.838Z,97501.82
2022-08-30T13:56:53.468Z,97492.65
2022-08-30T14:02:29.540Z,97487.09
2022-08-30T14:05:02.873Z,97485.52
2022-08-30T14:07:50.515Z,97488.89
2022-08-30T14:10:46.440Z,97489.44
2022-08-30T14:13:29.473Z,97488.23
2022-08-30T14:18:51.450Z,97484.17
2022-08-30T14:21:56.754Z,97480.32
2022-08-30T14:24:43.694Z,97478.40
2022-08-30T14:27:31.188Z,97469.52
2022-08-30T14:30:38.742Z,97465.91
2022-08-30T14:34:05.477Z,97467.27
2022-08-30T14:36:53.431Z,97463.89
2022-08-30T14:43:06.955Z,97457.20
2022-08-30T14:49:18.672Z,97457.42
2022-08-30T14:51:49.704Z,97452.48
2022-08-30T14:54:39.258Z,97447.15
2022-08-30T14:57:26.581Z,97447.58
2022-08-30T15:00:51.924Z,97443.58
2022-08-30T15:03:21.534Z,97441.79
2022-08-30T15:06:46.923Z,97439.13
2022-08-30T15:12:09.229Z,97427.09
2022-08-30T15:15:19.050Z,97417.20
2022-08-30T15:18:08.206Z,97417.77
2022-08-30T15:21:13.343Z,97410.15
2022-08-30T15:24:38.980Z,97412.98
2022-08-30T15:27:26.917Z,97410.77
2022-08-30T15:30:15.911Z,97413.08
2022-08-30T15:34:01.802Z,97414.02
2022-08-30T15:36:31.410Z,97412.86
2022-08-30T15:39:37.853Z,97414.98
2022-08-30T15:46:13.385Z,97411.76
2022-08-30T15:52:10.282Z,97411.30
2022-08-30T15:55:12.307Z,97410.80
2022-08-30T15:57:41.402Z,97412.81
2022-08-30T16:00:13.704Z,97415.55
2022-08-30T16:02:43.468Z,97416.84
2022-08-30T16:05:31.854Z,97418.45
2022-08-30T16:08:01.148Z,97417.44
2022-08-30T16:24:28.250Z,97412.33
2022-08-30T16:30:22.649Z,97414.89
2022-08-30T16:33:11.135Z,97414.42
2022-08-30T16:35:58.395Z,97420.63
2022-08-30T16:38:46.215Z,97427.84
2022-08-30T16:41:21.383Z,97428.96
2022-08-30T16:50:04.043Z,97448.09
2022-08-30T16:55:59.100Z,97458.52
2022-08-30T16:58:46.444Z,97457.52
2022-08-30T17:01:53.955Z,97454.86
2022-08-30T17:04:24.376Z,97456.81
2022-08-30T17:06:54.787Z,97457.94
2022-08-30T17:09:43.275Z,97461.50
2022-08-30T17:12:48.713Z,97468.14
2022-08-30T17:15:19.505Z,97469.02
2022-08-30T17:18:25.864Z,97468.52
2022-08-30T17:20:55.552Z,97469.17
2022-08-30T17:24:02.814Z,97471.11
2022-08-30T17:26:58.395Z,97467.17
2022-08-30T17:32:18.280Z,97472.33
2022-08-30T17:42:14.469Z,97467.81
2022-08-30T17:45:19.231Z,97467.45
2022-08-30T17:48:06.724Z,97467.37
2022-08-30T17:50:56.196Z,97467.21
2022-08-30T18:01:29.663Z,97461.69
2022-08-30T18:04:33.402Z,97462.20
2022-08-30T18:07:23.148Z,97467.15
2022-08-30T18:17:01.794Z,97471.42
2022-08-30T18:20:10.989Z,97471.44
2022-08-30T18:25:55.441Z,97482.73
2022-08-30T18:28:43.324Z,97485.66
2022-08-30T18:31:13.608Z,97495.93
2022-08-30T18:37:45.014Z,97494.43
2022-08-30T18:40:32.927Z,97493.21
2022-08-30T18:46:28.285Z,97496.57
2022-08-30T18:49:36.076Z,97496.95
2022-08-30T18:55:31.935Z,97499.18
2022-08-30T18:58:29.546Z,97503.63
2022-08-30T19:00:59.129Z,97501.06
2022-08-30T19:03:33.091Z,97493.77
2022-08-30T19:09:30.683Z,97496.37
2022-08-30T19:12:18.211Z,97497.43
2022-08-30T19:18:17.154Z,97503.35
2022-08-30T19:21:46.081Z,97499.81
2022-08-30T19:27:40.043Z,97498.92
2022-08-30T19:30:20.548Z,97498.89
2022-08-30T19:33:11.734Z,97506.77
2022-08-30T19:39:05.922Z,97502.51
2022-08-30T19:42:29.524Z,97503.04
2022-08-30T19:44:59.609Z,97504.34
2022-08-30T19:48:07.319Z,97504.71
2022-08-30T19:50:38.285Z,97503.65
2022-08-30T19:53:26.847Z,97503.23
2022-08-30T20:03:01.939Z,97499.01
2022-08-30T20:06:06.148Z,97496.77
2022-08-30T20:08:56.611Z,97496.59
2022-08-30T20:11:46.942Z,97496.58
2022-08-30T20:14:22.581Z,97489.87
2022-08-30T20:17:42.325Z,97490.80
2022-08-30T20:20:38.100Z,97490.11
2022-08-30T20:23:29.551Z,97490.45
2022-08-30T20:26:00.151Z,97483.49
2022-08-30T20:28:32.499Z,97474.55
2022-08-30T20:31:20.629Z,97477.23
2022-08-30T20:33:50.235Z,97477.58
2022-08-30T20:40:21.561Z,97486.57
2022-08-30T20:43:27.524Z,97484.46
2022-08-30T20:46:18.771Z,97477.02
2022-08-30T20:49:43.218Z,97471.73
2022-08-30T21:00:14.679Z,97469.30
2022-08-30T21:03:26.138Z,97475.04
2022-08-30T21:05:57.510Z,97478.67
2022-08-30T21:11:50.670Z,97476.86
2022-08-30T21:14:37.942Z,97479.73
2022-08-30T21:20:32.182Z,97477.56
2022-08-30T21:23:20.372Z,97474.20
2022-08-30T21:25:50.081Z,97472.84
2022-08-30T21:31:29.840Z,97483.05
2022-08-30T21:34:17.421Z,97483.18
2022-08-30T21:37:41.959Z,97486.11
2022-08-30T21:41:06.039Z,97487.43
2022-08-30T21:43:35.404Z,97488.16
2022-08-30T21:46:41.325Z,97490.15
2022-08-30T21:49:12.099Z,97484.34
2022-08-30T21:54:48.574Z,97485.05
2022-08-30T21:57:55.157Z,97482.33
2022-08-30T22:00:43.045Z,97484.27
2022-08-30T22:03:48.120Z,97484.02
2022-08-30T22:06:37.946Z,97481.18
2022-08-30T22:09:26.366Z,97477.60
2022-08-30T22:12:50.709Z,97477.31
2022-08-30T22:15:38.314Z,97479.29
2022-08-30T22:28:39.875Z,97490.81
2022-08-30T22:31:46.511Z,97495.61
2022-08-30T22:34:18.297Z,97496.98
2022-08-30T22:40:30.867Z,97501.45
2022-08-30T22:43:41.114Z,97503.84
2022-08-30T22:46:11.238Z,97509.36
2022-08-30T22:49:35.221Z,97512.52
2022-08-30T22:52:40.771Z,97508.94
2022-08-30T22:55:10.641Z,97503.19
2022-08-30T22:57:40.974Z,97503.52
2022-08-30T23:00:28.976Z,97507.03
2022-08-30T23:02:58.224Z,97510.44
2022-08-30T23:06:04.627Z,97517.00
2022-08-30T23:09:11.343Z,97510.02
2022-08-30T23:11:59.760Z,97511.94
2022-08-30T23:15:05.431Z,97510.20
2022-08-30T23:17:54.130Z,97507.83
2022-08-30T23:20:41.242Z,97506.27
2022-08-30T23:26:51.830Z,97497.79
2022-08-30T23:29:59.428Z,97494.12
2022-08-30T23:33:05.065Z,97495.39
2022-08-30T23:36:28.444Z,97497.12
2022-08-30T23:39:35.117Z,97491.09
2022-08-30T23:42:40.933Z,97489.75
2022-08-30T23:45:46.379Z,97497.61
2022-08-30T23:48:52.482Z,97499.67
2022-08-30T23:58:46.244Z,97488.63
